sensor_id;sensor_type;location;lat;lon;timestamp;P1;durP1;ratioP1;P2;durP2;ratioP2
60641;SDS011;46837;52.446;-1.930;2022-07-10T00:00:09;3.18;;;2.72;;
60641;SDS011;46837;52.446;-1.930;2022-07-10T00:01:07;4.72;;;3.62;;
60641;SDS011;46837;52.446;-1.930;2022-07-10T00:02:07;6.20;;;3.28;;
60641;SDS011;46837;52.446;-1.930;2022-07-10T00:03:07;4.36;;;3.76;;
60641;SDS011;46837;52.446;-1.930;2022-07-10T00:04:07;6.22;;;3.80;;
60641;SDS011;46837;52.446;-1.930;2022-07-10T00:05:07;11.82;;;3.18;;
60641;SDS011;46837;52.446;-1.930;2022-07-10T00:06:07;5.92;;;3.44;;
60641;SDS011;46837;52.446;-1.930;2022-07-10T00:07:07;3.98;;;3.34;;
60641;SDS011;46837;52.446;-1.930;2022-07-10T00:08:07;8.30;;;3.54;;
60641;SDS011;46837;52.446;-1.930;2022-07-10T00:09:07;9.92;;;3.94;;
60641;SDS011;46837;52.446;-1.930;2022-07-10T00:10:07;3.52;;;3.04;;
60641;SDS011;46837;52.446;-1.930;2022-07-10T00:11:07;8.62;;;3.88;;
60641;SDS011;46837;52.446;-1.930;2022-07-10T00:12:07;4.62;;;3.44;;
60641;SDS011;46837;52.446;-1.930;2022-07-10T00:13:07;3.34;;;2.98;;
60641;SDS011;46837;52.446;-1.930;2022-07-10T00:14:07;4.32;;;3.14;;
60641;SDS011;46837;52.446;-1.930;2022-07-10T00:15:07;3.38;;;3.08;;
60641;SDS011;46837;52.446;-1.930;2022-07-10T00:16:07;3.20;;;2.90;;
60641;SDS011;46837;52.446;-1.930;2022-07-10T00:17:07;5.44;;;3.28;;
60641;SDS011;46837;52.446;-1.930;2022-07-10T00:18:07;4.06;;;3.52;;
60641;SDS011;46837;52.446;-1.930;2022-07-10T00:19:07;4.84;;;4.32;;
60641;SDS011;46837;52.446;-1.930;2022-07-10T00:20:07;5.10;;;3.64;;
60641;SDS011;46837;52.446;-1.930;2022-07-10T00:21:07;5.22;;;3.70;;
60641;SDS011;46837;52.446;-1.930;2022-07-10T00:22:07;4.92;;;3.76;;
60641;SDS011;46837;52.446;-1.930;2022-07-10T00:23:07;4.54;;;3.04;;
60641;SDS011;46837;52.446;-1.930;2022-07-10T00:24:07;4.10;;;3.32;;
60641;SDS011;46837;52.446;-1.930;2022-07-10T00:25:08;3.18;;;2.92;;
60641;SDS011;46837;52.446;-1.930;2022-07-10T00:26:07;4.00;;;3.38;;
60641;SDS011;46837;52.446;-1.930;2022-07-10T00:27:07;6.36;;;3.84;;
60641;SDS011;46837;52.446;-1.930;2022-07-10T00:28:07;4.44;;;3.42;;
60641;SDS011;46837;52.446;-1.930;2022-07-10T00:29:07;6.02;;;3.74;;
60641;SDS011;46837;52.446;-1.930;2022-07-10T00:30:09;3.92;;;3.56;;
60641;SDS011;46837;52.446;-1.930;2022-07-10T00:31:07;3.66;;;3.36;;
60641;SDS011;46837;52.446;-1.930;2022-07-10T00:32:07;8.54;;;3.92;;
60641;SDS011;46837;52.446;-1.930;2022-07-10T00:33:07;4.88;;;4.42;;
60641;SDS011;46837;52.446;-1.930;2022-07-10T00:34:07;4.22;;;3.92;;
60641;SDS011;46837;52.446;-1.930;2022-07-10T00:35:07;3.90;;;3.48;;
60641;SDS011;46837;52.446;-1.930;2022-07-10T00:36:07;4.32;;;3.90;;
60641;SDS011;46837;52.446;-1.930;2022-07-10T00:37:07;5.58;;;4.24;;
60641;SDS011;46837;52.446;-1.930;2022-07-10T00:38:07;8.08;;;4.42;;
60641;SDS011;46837;52.446;-1.930;2022-07-10T00:39:07;5.24;;;4.82;;
60641;SDS011;46837;52.446;-1.930;2022-07-10T00:40:07;4.80;;;4.26;;
60641;SDS011;46837;52.446;-1.930;2022-07-10T00:41:07;3.92;;;3.62;;
60641;SDS011;46837;52.446;-1.930;2022-07-10T00:42:10;5.14;;;3.82;;
60641;SDS011;46837;52.446;-1.930;2022-07-10T00:43:09;3.98;;;3.34;;
60641;SDS011;46837;52.446;-1.930;2022-07-10T00:44:07;4.22;;;3.92;;
60641;SDS011;46837;52.446;-1.930;2022-07-10T00:45:07;7.16;;;3.72;;
60641;SDS011;46837;52.446;-1.930;2022-07-10T00:46:07;3.78;;;3.48;;
60641;SDS011;46837;52.446;-1.930;2022-07-10T00:47:07;3.68;;;3.48;;
60641;SDS011;46837;52.446;-1.930;2022-07-10T00:48:07;5.60;;;4.30;;
60641;SDS011;46837;52.446;-1.930;2022-07-10T00:49:07;5.04;;;4.42;;
60641;SDS011;46837;52.446;-1.930;2022-07-10T00:50:07;5.36;;;4.76;;
60641;SDS011;46837;52.446;-1.930;2022-07-10T00:51:07;8.74;;;4.58;;
60641;SDS011;46837;52.446;-1.930;2022-07-10T00:52:07;5.56;;;4.68;;
60641;SDS011;46837;52.446;-1.930;2022-07-10T00:53:07;5.62;;;4.22;;
60641;SDS011;46837;52.446;-1.930;2022-07-10T00:54:07;5.70;;;4.64;;
60641;SDS011;46837;52.446;-1.930;2022-07-10T00:55:07;5.10;;;4.48;;
60641;SDS011;46837;52.446;-1.930;2022-07-10T00:56:07;5.20;;;4.70;;
60641;SDS011;46837;52.446;-1.930;2022-07-10T00:57:08;6.18;;;4.42;;
60641;SDS011;46837;52.446;-1.930;2022-07-10T00:58:07;4.40;;;4.04;;
60641;SDS011;46837;52.446;-1.930;2022-07-10T00:59:07;4.76;;;4.36;;
60641;SDS011;46837;52.446;-1.930;2022-07-10T01:00:07;6.48;;;4.56;;
60641;SDS011;46837;52.446;-1.930;2022-07-10T01:01:07;6.54;;;5.16;;
60641;SDS011;46837;52.446;-1.930;2022-07-10T01:02:07;6.30;;;4.32;;
60641;SDS011;46837;52.446;-1.930;2022-07-10T01:03:07;6.50;;;4.40;;
60641;SDS011;46837;52.446;-1.930;2022-07-10T01:04:07;5.44;;;4.52;;
60641;SDS011;46837;52.446;-1.930;2022-07-10T01:05:07;4.38;;;3.98;;
60641;SDS011;46837;52.446;-1.930;2022-07-10T01:06:07;5.56;;;5.10;;
60641;SDS011;46837;52.446;-1.930;2022-07-10T01:07:07;6.00;;;4.60;;
60641;SDS011;46837;52.446;-1.930;2022-07-10T01:08:07;8.62;;;5.18;;
60641;SDS011;46837;52.446;-1.930;2022-07-10T01:09:07;7.40;;;4.60;;
60641;SDS011;46837;52.446;-1.930;2022-07-10T01:10:07;4.70;;;4.36;;
60641;SDS011;46837;52.446;-1.930;2022-07-10T01:11:07;5.66;;;5.06;;
60641;SDS011;46837;52.446;-1.930;2022-07-10T01:12:07;6.54;;;5.28;;
60641;SDS011;46837;52.446;-1.930;2022-07-10T01:13:07;6.42;;;5.82;;
60641;SDS011;46837;52.446;-1.930;2022-07-10T01:14:07;7.92;;;5.92;;
60641;SDS011;46837;52.446;-1.930;2022-07-10T01:15:07;9.26;;;7.80;;
60641;SDS011;46837;52.446;-1.930;2022-07-10T01:16:07;8.46;;;6.32;;
60641;SDS011;46837;52.446;-1.930;2022-07-10T01:17:07;10.24;;;6.78;;
60641;SDS011;46837;52.446;-1.930;2022-07-10T01:18:07;8.66;;;6.84;;
60641;SDS011;46837;52.446;-1.930;2022-07-10T01:19:07;8.08;;;5.56;;
60641;SDS011;46837;52.446;-1.930;2022-07-10T01:20:07;11.70;;;5.70;;
60641;SDS011;46837;52.446;-1.930;2022-07-10T01:21:22;5.82;;;5.18;;
60641;SDS011;46837;52.446;-1.930;2022-07-10T01:22:07;7.00;;;6.30;;
60641;SDS011;46837;52.446;-1.930;2022-07-10T01:23:07;7.20;;;6.16;;
60641;SDS011;46837;52.446;-1.930;2022-07-10T01:24:07;7.26;;;5.86;;
60641;SDS011;46837;52.446;-1.930;2022-07-10T01:25:07;7.06;;;6.24;;
60641;SDS011;46837;52.446;-1.930;2022-07-10T01:26:07;10.10;;;6.20;;
60641;SDS011;46837;52.446;-1.930;2022-07-10T01:27:07;6.98;;;6.22;;
60641;SDS011;46837;52.446;-1.930;2022-07-10T01:28:07;5.86;;;5.36;;
60641;SDS011;46837;52.446;-1.930;2022-07-10T01:29:07;6.26;;;5.68;;
60641;SDS011;46837;52.446;-1.930;2022-07-10T01:30:07;6.08;;;5.54;;
60641;SDS011;46837;52.446;-1.930;2022-07-10T01:31:07;6.90;;;6.08;;
60641;SDS011;46837;52.446;-1.930;2022-07-10T01:32:07;5.18;;;4.52;;
60641;SDS011;46837;52.446;-1.930;2022-07-10T01:33:07;6.02;;;5.48;;
60641;SDS011;46837;52.446;-1.930;2022-07-10T01:34:07;5.98;;;5.40;;
60641;SDS011;46837;52.446;-1.930;2022-07-10T01:35:07;6.58;;;5.28;;
60641;SDS011;46837;52.446;-1.930;2022-07-10T01:36:07;6.26;;;5.64;;
60641;SDS011;46837;52.446;-1.930;2022-07-10T01:37:07;7.06;;;6.46;;
60641;SDS011;46837;52.446;-1.930;2022-07-10T01:38:07;6.52;;;5.90;;
60641;SDS011;46837;52.446;-1.930;2022-07-10T01:39:07;6.80;;;6.20;;
60641;SDS011;46837;52.446;-1.930;2022-07-10T01:40:07;6.84;;;6.20;;
60641;SDS011;46837;52.446;-1.930;2022-07-10T01:41:07;6.60;;;5.86;;
60641;SDS011;46837;52.446;-1.930;2022-07-10T01:42:07;6.34;;;5.78;;
60641;SDS011;46837;52.446;-1.930;2022-07-10T01:43:07;8.16;;;6.86;;
60641;SDS011;46837;52.446;-1.930;2022-07-10T01:44:07;6.02;;;5.18;;
60641;SDS011;46837;52.446;-1.930;2022-07-10T01:45:07;7.88;;;6.08;;
60641;SDS011;46837;52.446;-1.930;2022-07-10T01:46:07;6.42;;;5.76;;
60641;SDS011;46837;52.446;-1.930;2022-07-10T01:47:07;5.92;;;5.42;;
60641;SDS011;46837;52.446;-1.930;2022-07-10T01:48:07;5.88;;;5.36;;
60641;SDS011;46837;52.446;-1.930;2022-07-10T01:49:07;5.72;;;5.18;;
60641;SDS011;46837;52.446;-1.930;2022-07-10T01:50:07;6.18;;;5.40;;
60641;SDS011;46837;52.446;-1.930;2022-07-10T01:51:07;5.44;;;4.80;;
60641;SDS011;46837;52.446;-1.930;2022-07-10T01:52:07;6.96;;;6.36;;
60641;SDS011;46837;52.446;-1.930;2022-07-10T01:53:07;6.30;;;5.70;;
60641;SDS011;46837;52.446;-1.930;2022-07-10T01:54:07;5.36;;;4.94;;
60641;SDS011;46837;52.446;-1.930;2022-07-10T01:55:07;5.64;;;5.12;;
60641;SDS011;46837;52.446;-1.930;2022-07-10T01:56:07;6.22;;;5.72;;
60641;SDS011;46837;52.446;-1.930;2022-07-10T01:57:07;7.02;;;5.28;;
60641;SDS011;46837;52.446;-1.930;2022-07-10T01:58:07;6.06;;;4.66;;
60641;SDS011;46837;52.446;-1.930;2022-07-10T01:59:07;7.00;;;5.62;;
60641;SDS011;46837;52.446;-1.930;2022-07-10T02:00:07;8.60;;;6.34;;
60641;SDS011;46837;52.446;-1.930;2022-07-10T02:01:07;6.76;;;5.10;;
60641;SDS011;46837;52.446;-1.930;2022-07-10T02:02:07;6.66;;;6.08;;
60641;SDS011;46837;52.446;-1.930;2022-07-10T02:03:11;6.00;;;5.30;;
60641;SDS011;46837;52.446;-1.930;2022-07-10T02:04:11;6.32;;;5.68;;
60641;SDS011;46837;52.446;-1.930;2022-07-10T02:05:07;6.46;;;5.38;;
60641;SDS011;46837;52.446;-1.930;2022-07-10T02:06:07;7.24;;;5.72;;
60641;SDS011;46837;52.446;-1.930;2022-07-10T02:07:07;7.28;;;5.90;;
60641;SDS011;46837;52.446;-1.930;2022-07-10T02:08:07;6.38;;;5.70;;
60641;SDS011;46837;52.446;-1.930;2022-07-10T02:09:07;6.98;;;5.94;;
60641;SDS011;46837;52.446;-1.930;2022-07-10T02:10:07;5.12;;;4.76;;
60641;SDS011;46837;52.446;-1.930;2022-07-10T02:11:07;6.28;;;5.76;;
60641;SDS011;46837;52.446;-1.930;2022-07-10T02:12:07;6.46;;;5.18;;
60641;SDS011;46837;52.446;-1.930;2022-07-10T02:13:07;6.58;;;5.32;;
60641;SDS011;46837;52.446;-1.930;2022-07-10T02:14:07;7.48;;;5.22;;
60641;SDS011;46837;52.446;-1.930;2022-07-10T02:15:07;5.58;;;5.10;;
60641;SDS011;46837;52.446;-1.930;2022-07-10T02:16:07;8.86;;;6.32;;
60641;SDS011;46837;52.446;-1.930;2022-07-10T02:17:07;5.40;;;4.86;;
60641;SDS011;46837;52.446;-1.930;2022-07-10T02:18:07;6.98;;;5.82;;
60641;SDS011;46837;52.446;-1.930;2022-07-10T02:19:07;5.84;;;4.64;;
60641;SDS011;46837;52.446;-1.930;2022-07-10T02:20:07;6.20;;;5.70;;
60641;SDS011;46837;52.446;-1.930;2022-07-10T02:21:07;6.38;;;5.54;;
60641;SDS011;46837;52.446;-1.930;2022-07-10T02:22:07;7.36;;;5.68;;
60641;SDS011;46837;52.446;-1.930;2022-07-10T02:23:07;5.80;;;5.14;;
60641;SDS011;46837;52.446;-1.930;2022-07-10T02:24:07;5.42;;;4.88;;
60641;SDS011;46837;52.446;-1.930;2022-07-10T02:25:07;8.16;;;5.48;;
60641;SDS011;46837;52.446;-1.930;2022-07-10T02:26:07;7.52;;;6.14;;
60641;SDS011;46837;52.446;-1.930;2022-07-10T02:27:07;6.52;;;5.92;;
60641;SDS011;46837;52.446;-1.930;2022-07-10T02:28:09;6.08;;;5.54;;
60641;SDS011;46837;52.446;-1.930;2022-07-10T02:29:07;6.28;;;5.88;;
60641;SDS011;46837;52.446;-1.930;2022-07-10T02:30:07;6.74;;;5.24;;
60641;SDS011;46837;52.446;-1.930;2022-07-10T02:31:07;6.56;;;5.94;;
60641;SDS011;46837;52.446;-1.930;2022-07-10T02:32:07;7.78;;;6.96;;
60641;SDS011;46837;52.446;-1.930;2022-07-10T02:33:07;5.78;;;5.34;;
60641;SDS011;46837;52.446;-1.930;2022-07-10T02:34:10;7.58;;;6.96;;
60641;SDS011;46837;52.446;-1.930;2022-07-10T02:35:07;8.46;;;6.34;;
60641;SDS011;46837;52.446;-1.930;2022-07-10T02:36:07;6.40;;;5.88;;
60641;SDS011;46837;52.446;-1.930;2022-07-10T02:37:07;7.68;;;6.70;;
60641;SDS011;46837;52.446;-1.930;2022-07-10T02:38:07;6.78;;;6.14;;
60641;SDS011;46837;52.446;-1.930;2022-07-10T02:39:07;10.68;;;6.26;;
60641;SDS011;46837;52.446;-1.930;2022-07-10T02:40:10;5.86;;;5.34;;
60641;SDS011;46837;52.446;-1.930;2022-07-10T02:41:07;8.10;;;6.58;;
60641;SDS011;46837;52.446;-1.930;2022-07-10T02:42:07;6.88;;;6.18;;
60641;SDS011;46837;52.446;-1.930;2022-07-10T02:43:07;5.76;;;5.32;;
60641;SDS011;46837;52.446;-1.930;2022-07-10T02:44:07;8.54;;;6.90;;
60641;SDS011;46837;52.446;-1.930;2022-07-10T02:45:07;7.36;;;6.60;;
60641;SDS011;46837;52.446;-1.930;2022-07-10T02:46:07;6.88;;;6.28;;
60641;SDS011;46837;52.446;-1.930;2022-07-10T02:47:07;7.06;;;6.38;;
60641;SDS011;46837;52.446;-1.930;2022-07-10T02:48:07;10.34;;;6.38;;
60641;SDS011;46837;52.446;-1.930;2022-07-10T02:49:07;7.34;;;6.74;;
60641;SDS011;46837;52.446;-1.930;2022-07-10T02:50:07;7.54;;;6.40;;
60641;SDS011;46837;52.446;-1.930;2022-07-10T02:51:07;7.52;;;6.72;;
60641;SDS011;46837;52.446;-1.930;2022-07-10T02:52:07;6.34;;;5.90;;
60641;SDS011;46837;52.446;-1.930;2022-07-10T02:53:07;7.22;;;6.58;;
60641;SDS011;46837;52.446;-1.930;2022-07-10T02:54:07;5.82;;;5.40;;
60641;SDS011;46837;52.446;-1.930;2022-07-10T02:55:07;6.04;;;5.58;;
60641;SDS011;46837;52.446;-1.930;2022-07-10T02:56:07;6.96;;;6.40;;
60641;SDS011;46837;52.446;-1.930;2022-07-10T02:57:07;6.26;;;5.66;;
60641;SDS011;46837;52.446;-1.930;2022-07-10T02:58:07;8.22;;;6.74;;
60641;SDS011;46837;52.446;-1.930;2022-07-10T02:59:07;8.88;;;6.24;;
60641;SDS011;46837;52.446;-1.930;2022-07-10T03:00:07;7.68;;;6.82;;
60641;SDS011;46837;52.446;-1.930;2022-07-10T03:01:07;7.02;;;6.30;;
60641;SDS011;46837;52.446;-1.930;2022-07-10T03:02:07;7.70;;;6.76;;
60641;SDS011;46837;52.446;-1.930;2022-07-10T03:03:07;7.80;;;5.76;;
60641;SDS011;46837;52.446;-1.930;2022-07-10T03:04:07;6.24;;;5.68;;
60641;SDS011;46837;52.446;-1.930;2022-07-10T03:05:07;6.74;;;6.12;;
60641;SDS011;46837;52.446;-1.930;2022-07-10T03:06:07;6.50;;;5.98;;
60641;SDS011;46837;52.446;-1.930;2022-07-10T03:07:07;7.80;;;6.04;;
60641;SDS011;46837;52.446;-1.930;2022-07-10T03:08:07;7.10;;;6.56;;
60641;SDS011;46837;52.446;-1.930;2022-07-10T03:09:07;6.82;;;6.24;;
60641;SDS011;46837;52.446;-1.930;2022-07-10T03:10:07;6.30;;;5.72;;
60641;SDS011;46837;52.446;-1.930;2022-07-10T03:11:07;7.86;;;6.12;;
60641;SDS011;46837;52.446;-1.930;2022-07-10T03:12:07;7.58;;;6.52;;
60641;SDS011;46837;52.446;-1.930;2022-07-10T03:13:07;8.12;;;6.34;;
60641;SDS011;46837;52.446;-1.930;2022-07-10T03:14:07;6.38;;;5.82;;
60641;SDS011;46837;52.446;-1.930;2022-07-10T03:15:07;7.26;;;6.10;;
60641;SDS011;46837;52.446;-1.930;2022-07-10T03:16:07;8.22;;;5.70;;
60641;SDS011;46837;52.446;-1.930;2022-07-10T03:17:07;5.74;;;5.22;;
60641;SDS011;46837;52.446;-1.930;2022-07-10T03:18:07;6.82;;;5.74;;
60641;SDS011;46837;52.446;-1.930;2022-07-10T03:19:07;8.88;;;5.76;;
60641;SDS011;46837;52.446;-1.930;2022-07-10T03:20:07;5.86;;;5.34;;
60641;SDS011;46837;52.446;-1.930;2022-07-10T03:21:07;6.42;;;5.56;;
60641;SDS011;46837;52.446;-1.930;2022-07-10T03:22:07;6.96;;;5.46;;
60641;SDS011;46837;52.446;-1.930;2022-07-10T03:23:07;8.16;;;6.46;;
60641;SDS011;46837;52.446;-1.930;2022-07-10T03:24:07;6.36;;;5.86;;
60641;SDS011;46837;52.446;-1.930;2022-07-10T03:25:07;7.42;;;5.30;;
60641;SDS011;46837;52.446;-1.930;2022-07-10T03:26:07;10.82;;;6.08;;
60641;SDS011;46837;52.446;-1.930;2022-07-10T03:27:07;6.30;;;5.80;;
60641;SDS011;46837;52.446;-1.930;2022-07-10T03:28:07;5.80;;;5.28;;
60641;SDS011;46837;52.446;-1.930;2022-07-10T03:29:07;6.42;;;5.80;;
60641;SDS011;46837;52.446;-1.930;2022-07-10T03:30:07;9.86;;;6.18;;
60641;SDS011;46837;52.446;-1.930;2022-07-10T03:31:07;6.50;;;5.44;;
60641;SDS011;46837;52.446;-1.930;2022-07-10T03:32:07;8.06;;;6.72;;
60641;SDS011;46837;52.446;-1.930;2022-07-10T03:33:07;5.90;;;5.36;;
60641;SDS011;46837;52.446;-1.930;2022-07-10T03:34:07;7.32;;;5.44;;
60641;SDS011;46837;52.446;-1.930;2022-07-10T03:35:07;6.94;;;6.00;;
60641;SDS011;46837;52.446;-1.930;2022-07-10T03:36:07;6.68;;;6.08;;
60641;SDS011;46837;52.446;-1.930;2022-07-10T03:37:07;8.88;;;5.78;;
60641;SDS011;46837;52.446;-1.930;2022-07-10T03:38:07;5.72;;;5.18;;
60641;SDS011;46837;52.446;-1.930;2022-07-10T03:39:07;6.60;;;6.00;;
60641;SDS011;46837;52.446;-1.930;2022-07-10T03:40:07;8.60;;;6.52;;
60641;SDS011;46837;52.446;-1.930;2022-07-10T03:41:07;6.10;;;5.60;;
60641;SDS011;46837;52.446;-1.930;2022-07-10T03:42:07;5.98;;;5.40;;
60641;SDS011;46837;52.446;-1.930;2022-07-10T03:43:07;6.10;;;5.58;;
60641;SDS011;46837;52.446;-1.930;2022-07-10T03:44:07;8.56;;;6.52;;
60641;SDS011;46837;52.446;-1.930;2022-07-10T03:45:07;7.28;;;6.56;;
60641;SDS011;46837;52.446;-1.930;2022-07-10T03:46:07;5.82;;;5.32;;
60641;SDS011;46837;52.446;-1.930;2022-07-10T03:47:07;8.48;;;5.58;;
60641;SDS011;46837;52.446;-1.930;2022-07-10T03:48:07;11.60;;;5.96;;
60641;SDS011;46837;52.446;-1.930;2022-07-10T03:49:07;7.14;;;5.42;;
60641;SDS011;46837;52.446;-1.930;2022-07-10T03:50:07;8.46;;;7.50;;
60641;SDS011;46837;52.446;-1.930;2022-07-10T03:51:07;11.86;;;5.88;;
60641;SDS011;46837;52.446;-1.930;2022-07-10T03:52:07;5.70;;;5.30;;
60641;SDS011;46837;52.446;-1.930;2022-07-10T03:53:07;8.96;;;6.06;;
60641;SDS011;46837;52.446;-1.930;2022-07-10T03:54:07;6.58;;;5.98;;
60641;SDS011;46837;52.446;-1.930;2022-07-10T03:55:07;8.04;;;7.28;;
60641;SDS011;46837;52.446;-1.930;2022-07-10T03:56:07;7.30;;;6.62;;
60641;SDS011;46837;52.446;-1.930;2022-07-10T03:57:11;5.88;;;5.38;;
60641;SDS011;46837;52.446;-1.930;2022-07-10T03:58:07;6.30;;;5.70;;
60641;SDS011;46837;52.446;-1.930;2022-07-10T03:59:07;6.56;;;5.10;;
60641;SDS011;46837;52.446;-1.930;2022-07-10T04:00:07;7.68;;;4.88;;
60641;SDS011;46837;52.446;-1.930;2022-07-10T04:01:07;7.54;;;6.94;;
60641;SDS011;46837;52.446;-1.930;2022-07-10T04:02:07;5.68;;;5.26;;
60641;SDS011;46837;52.446;-1.930;2022-07-10T04:03:07;6.46;;;5.38;;
60641;SDS011;46837;52.446;-1.930;2022-07-10T04:04:07;6.70;;;5.46;;
60641;SDS011;46837;52.446;-1.930;2022-07-10T04:05:07;5.14;;;4.74;;
60641;SDS011;46837;52.446;-1.930;2022-07-10T04:06:07;5.88;;;5.38;;
60641;SDS011;46837;52.446;-1.930;2022-07-10T04:07:07;5.60;;;5.18;;
60641;SDS011;46837;52.446;-1.930;2022-07-10T04:08:07;7.86;;;5.98;;
60641;SDS011;46837;52.446;-1.930;2022-07-10T04:09:07;5.96;;;4.44;;
60641;SDS011;46837;52.446;-1.930;2022-07-10T04:10:07;5.86;;;5.46;;
60641;SDS011;46837;52.446;-1.930;2022-07-10T04:11:07;5.88;;;5.38;;
60641;SDS011;46837;52.446;-1.930;2022-07-10T04:12:07;4.98;;;4.58;;
60641;SDS011;46837;52.446;-1.930;2022-07-10T04:13:07;5.64;;;4.80;;
60641;SDS011;46837;52.446;-1.930;2022-07-10T04:14:07;5.74;;;5.24;;
60641;SDS011;46837;52.446;-1.930;2022-07-10T04:15:07;7.30;;;6.10;;
60641;SDS011;46837;52.446;-1.930;2022-07-10T04:16:07;5.98;;;5.50;;
60641;SDS011;46837;52.446;-1.930;2022-07-10T04:17:07;6.84;;;6.02;;
60641;SDS011;46837;52.446;-1.930;2022-07-10T04:18:07;6.24;;;5.72;;
60641;SDS011;46837;52.446;-1.930;2022-07-10T04:19:07;5.88;;;5.30;;
60641;SDS011;46837;52.446;-1.930;2022-07-10T04:20:07;4.98;;;4.58;;
60641;SDS011;46837;52.446;-1.930;2022-07-10T04:21:07;6.04;;;5.52;;
60641;SDS011;46837;52.446;-1.930;2022-07-10T04:22:07;6.68;;;5.88;;
60641;SDS011;46837;52.446;-1.930;2022-07-10T04:23:07;5.32;;;4.88;;
60641;SDS011;46837;52.446;-1.930;2022-07-10T04:24:07;8.02;;;5.40;;
60641;SDS011;46837;52.446;-1.930;2022-07-10T04:25:07;9.02;;;6.16;;
60641;SDS011;46837;52.446;-1.930;2022-07-10T04:26:07;6.60;;;4.96;;
60641;SDS011;46837;52.446;-1.930;2022-07-10T04:27:07;7.34;;;4.92;;
60641;SDS011;46837;52.446;-1.930;2022-07-10T04:28:07;6.18;;;5.60;;
60641;SDS011;46837;52.446;-1.930;2022-07-10T04:29:07;6.02;;;5.46;;
60641;SDS011;46837;52.446;-1.930;2022-07-10T04:30:07;5.30;;;4.74;;
60641;SDS011;46837;52.446;-1.930;2022-07-10T04:31:07;5.56;;;4.68;;
60641;SDS011;46837;52.446;-1.930;2022-07-10T04:32:07;7.06;;;5.30;;
60641;SDS011;46837;52.446;-1.930;2022-07-10T04:33:07;5.18;;;4.66;;
60641;SDS011;46837;52.446;-1.930;2022-07-10T04:34:07;9.40;;;4.92;;
60641;SDS011;46837;52.446;-1.930;2022-07-10T04:35:07;6.20;;;5.52;;
60641;SDS011;46837;52.446;-1.930;2022-07-10T04:36:07;5.82;;;5.10;;
60641;SDS011;46837;52.446;-1.930;2022-07-10T04:37:07;5.40;;;5.00;;
60641;SDS011;46837;52.446;-1.930;2022-07-10T04:38:07;5.80;;;5.30;;
60641;SDS011;46837;52.446;-1.930;2022-07-10T04:39:07;5.72;;;5.32;;
60641;SDS011;46837;52.446;-1.930;2022-07-10T04:40:07;5.48;;;5.08;;
60641;SDS011;46837;52.446;-1.930;2022-07-10T04:41:07;6.16;;;5.14;;
60641;SDS011;46837;52.446;-1.930;2022-07-10T04:42:07;5.70;;;4.92;;
60641;SDS011;46837;52.446;-1.930;2022-07-10T04:43:07;5.50;;;5.06;;
60641;SDS011;46837;52.446;-1.930;2022-07-10T04:44:07;5.70;;;5.12;;
60641;SDS011;46837;52.446;-1.930;2022-07-10T04:45:07;6.04;;;5.42;;
60641;SDS011;46837;52.446;-1.930;2022-07-10T04:46:07;5.86;;;5.38;;
60641;SDS011;46837;52.446;-1.930;2022-07-10T04:47:07;5.62;;;5.18;;
60641;SDS011;46837;52.446;-1.930;2022-07-10T04:48:07;6.18;;;5.12;;
60641;SDS011;46837;52.446;-1.930;2022-07-10T04:49:07;6.48;;;5.42;;
60641;SDS011;46837;52.446;-1.930;2022-07-10T04:50:07;6.68;;;5.36;;
60641;SDS011;46837;52.446;-1.930;2022-07-10T04:51:07;5.66;;;4.98;;
60641;SDS011;46837;52.446;-1.930;2022-07-10T04:52:07;7.62;;;4.58;;
60641;SDS011;46837;52.446;-1.930;2022-07-10T04:53:07;5.40;;;4.94;;
60641;SDS011;46837;52.446;-1.930;2022-07-10T04:54:07;5.68;;;5.20;;
60641;SDS011;46837;52.446;-1.930;2022-07-10T04:55:07;8.48;;;5.64;;
60641;SDS011;46837;52.446;-1.930;2022-07-10T04:56:07;6.62;;;5.02;;
60641;SDS011;46837;52.446;-1.930;2022-07-10T04:57:07;6.10;;;5.66;;
60641;SDS011;46837;52.446;-1.930;2022-07-10T04:58:07;5.42;;;5.02;;
60641;SDS011;46837;52.446;-1.930;2022-07-10T04:59:07;6.06;;;5.30;;
60641;SDS011;46837;52.446;-1.930;2022-07-10T05:00:07;5.58;;;4.72;;
60641;SDS011;46837;52.446;-1.930;2022-07-10T05:01:07;7.38;;;4.40;;
60641;SDS011;46837;52.446;-1.930;2022-07-10T05:02:07;7.34;;;4.98;;
60641;SDS011;46837;52.446;-1.930;2022-07-10T05:03:07;5.34;;;4.86;;
60641;SDS011;46837;52.446;-1.930;2022-07-10T05:04:07;7.98;;;4.84;;
60641;SDS011;46837;52.446;-1.930;2022-07-10T05:05:07;5.96;;;4.32;;
60641;SDS011;46837;52.446;-1.930;2022-07-10T05:06:07;4.72;;;4.26;;
60641;SDS011;46837;52.446;-1.930;2022-07-10T05:07:07;6.34;;;4.34;;
60641;SDS011;46837;52.446;-1.930;2022-07-10T05:08:07;4.12;;;3.76;;
60641;SDS011;46837;52.446;-1.930;2022-07-10T05:09:07;5.44;;;4.64;;
60641;SDS011;46837;52.446;-1.930;2022-07-10T05:10:07;4.56;;;4.10;;
60641;SDS011;46837;52.446;-1.930;2022-07-10T05:11:07;5.16;;;4.86;;
60641;SDS011;46837;52.446;-1.930;2022-07-10T05:12:07;5.06;;;4.14;;
60641;SDS011;46837;52.446;-1.930;2022-07-10T05:13:07;5.82;;;3.74;;
60641;SDS011;46837;52.446;-1.930;2022-07-10T05:14:07;5.38;;;4.60;;
60641;SDS011;46837;52.446;-1.930;2022-07-10T05:15:07;6.18;;;4.48;;
60641;SDS011;46837;52.446;-1.930;2022-07-10T05:16:07;4.84;;;4.44;;
60641;SDS011;46837;52.446;-1.930;2022-07-10T05:17:07;6.08;;;3.96;;
60641;SDS011;46837;52.446;-1.930;2022-07-10T05:18:07;5.24;;;4.26;;
60641;SDS011;46837;52.446;-1.930;2022-07-10T05:19:07;5.90;;;4.30;;
60641;SDS011;46837;52.446;-1.930;2022-07-10T05:20:07;4.98;;;4.58;;
60641;SDS011;46837;52.446;-1.930;2022-07-10T05:21:07;4.50;;;4.10;;
60641;SDS011;46837;52.446;-1.930;2022-07-10T05:22:07;4.66;;;4.32;;
60641;SDS011;46837;52.446;-1.930;2022-07-10T05:23:07;4.10;;;3.80;;
60641;SDS011;46837;52.446;-1.930;2022-07-10T05:24:07;7.26;;;4.00;;
60641;SDS011;46837;52.446;-1.930;2022-07-10T05:25:07;5.04;;;4.60;;
60641;SDS011;46837;52.446;-1.930;2022-07-10T05:26:07;4.78;;;4.04;;
60641;SDS011;46837;52.446;-1.930;2022-07-10T05:27:07;6.16;;;4.32;;
60641;SDS011;46837;52.446;-1.930;2022-07-10T05:28:07;5.54;;;4.32;;
60641;SDS011;46837;52.446;-1.930;2022-07-10T05:29:07;5.10;;;4.00;;
60641;SDS011;46837;52.446;-1.930;2022-07-10T05:30:07;3.88;;;3.64;;
60641;SDS011;46837;52.446;-1.930;2022-07-10T05:31:07;6.10;;;3.94;;
60641;SDS011;46837;52.446;-1.930;2022-07-10T05:32:07;4.18;;;3.88;;
60641;SDS011;46837;52.446;-1.930;2022-07-10T05:33:07;7.96;;;3.72;;
60641;SDS011;46837;52.446;-1.930;2022-07-10T05:34:07;4.46;;;4.04;;
60641;SDS011;46837;52.446;-1.930;2022-07-10T05:35:07;3.60;;;3.38;;
60641;SDS011;46837;52.446;-1.930;2022-07-10T05:36:07;4.00;;;3.42;;
60641;SDS011;46837;52.446;-1.930;2022-07-10T05:37:07;3.50;;;3.12;;
60641;SDS011;46837;52.446;-1.930;2022-07-10T05:38:07;3.08;;;2.86;;
60641;SDS011;46837;52.446;-1.930;2022-07-10T05:39:07;7.38;;;3.92;;
60641;SDS011;46837;52.446;-1.930;2022-07-10T05:40:07;4.00;;;3.62;;
60641;SDS011;46837;52.446;-1.930;2022-07-10T05:41:07;3.52;;;2.68;;
60641;SDS011;46837;52.446;-1.930;2022-07-10T05:42:07;2.92;;;2.66;;
60641;SDS011;46837;52.446;-1.930;2022-07-10T05:43:07;3.40;;;3.10;;
60641;SDS011;46837;52.446;-1.930;2022-07-10T05:44:07;3.00;;;2.72;;
60641;SDS011;46837;52.446;-1.930;2022-07-10T05:45:07;2.78;;;2.46;;
60641;SDS011;46837;52.446;-1.930;2022-07-10T05:46:07;3.66;;;3.36;;
60641;SDS011;46837;52.446;-1.930;2022-07-10T05:47:07;11.34;;;3.06;;
60641;SDS011;46837;52.446;-1.930;2022-07-10T05:48:07;3.80;;;2.36;;
60641;SDS011;46837;52.446;-1.930;2022-07-10T05:49:07;3.90;;;2.60;;
60641;SDS011;46837;52.446;-1.930;2022-07-10T05:50:07;3.22;;;2.92;;
60641;SDS011;46837;52.446;-1.930;2022-07-10T05:51:07;4.24;;;2.90;;
60641;SDS011;46837;52.446;-1.930;2022-07-10T05:52:07;2.04;;;1.94;;
60641;SDS011;46837;52.446;-1.930;2022-07-10T05:53:07;6.36;;;2.14;;
60641;SDS011;46837;52.446;-1.930;2022-07-10T05:54:07;4.42;;;2.58;;
60641;SDS011;46837;52.446;-1.930;2022-07-10T05:55:07;4.92;;;2.34;;